Search for airport 
image banner adimage banner adimage banner ad
image banner ad

2CA5 - Platform Emmy

Located in Huntington Beach, United States

ICAO - 2CA5, IATA -

Data provided by Airmate  

General information

Coordinates: N33°39'44" W118°2'40"
Elevation is 87 feet MSL.
Magnetic variation is 14° East
View others Airports in California

Operational data

Special qualification required
Current time UTC:
Current local time:
Weather at : KSLI - Los Alamitos Aaf ( 14 km )
METAR: KSLI 210258Z 20004KT 10SM CLR 19/17 A2993 RMK AO2A SLP138 T01910174 53018
TAF: TAF KSLI 202101Z 2021/2203 VRB06KT 9999 SKC QNH2986INS TX27/2023Z TN17/2114Z
View NOTAMs / SUP AIP / TFR affecting this airport [VIEW]
Communications frequencies: [VIEW]

Runways:

Airport contact information

Address: Huntington Beach United States

Satellite view of 2CA5